createdAt,value
2023-05-03T00:01:39.263Z,4.90
2023-05-03T00:04:06.429Z,4.80
2023-05-03T00:06:33.542Z,4.80
2023-05-03T00:09:00.535Z,4.70
2023-05-03T00:11:27.476Z,4.70
2023-05-03T00:13:54.439Z,4.70
2023-05-03T00:16:21.254Z,4.70
2023-05-03T00:18:49.307Z,4.60
2023-05-03T00:21:17.066Z,4.60
2023-05-03T00:23:43.996Z,4.50
2023-05-03T00:26:10.904Z,4.50
2023-05-03T00:28:37.875Z,4.40
2023-05-03T00:31:09.549Z,4.40
2023-05-03T00:33:40.452Z,4.30
2023-05-03T00:36:11.880Z,4.30
2023-05-03T00:38:39.579Z,4.30
2023-05-03T00:41:06.912Z,4.30
2023-05-03T00:43:35.457Z,4.30
2023-05-03T00:46:16.046Z,4.30
2023-05-03T00:48:46.131Z,4.30
2023-05-03T00:51:15.354Z,4.20
2023-05-03T00:53:43.290Z,4.20
2023-05-03T00:56:11.452Z,4.20
2023-05-03T00:58:40.809Z,4.10
2023-05-03T01:01:08.188Z,4.10
2023-05-03T01:03:37.866Z,4.10
2023-05-03T01:06:24.656Z,4.10
2023-05-03T01:08:59.723Z,4.00
2023-05-03T01:11:48.182Z,4.00
2023-05-03T01:14:53.560Z,4.00
2023-05-03T01:17:28.005Z,4.00
2023-05-03T01:20:00.913Z,4.00
2023-05-03T01:22:34.402Z,4.00
2023-05-03T01:25:12.412Z,4.00
2023-05-03T01:27:40.863Z,3.90
2023-05-03T01:30:09.948Z,3.90
2023-05-03T01:32:46.029Z,3.90
2023-05-03T01:35:34.160Z,3.90
2023-05-03T01:38:01.665Z,3.80
2023-05-03T01:40:31.025Z,3.80
2023-05-03T01:42:59.828Z,3.80
2023-05-03T01:45:26.953Z,3.70
2023-05-03T01:47:53.960Z,3.70
2023-05-03T01:50:20.737Z,3.70
2023-05-03T01:52:47.860Z,3.80
2023-05-03T01:55:14.635Z,3.80
2023-05-03T01:57:41.591Z,3.70
2023-05-03T02:00:10.336Z,3.70
2023-05-03T02:02:37.283Z,3.70
2023-05-03T02:05:04.250Z,3.70
2023-05-03T02:07:31.240Z,3.60
2023-05-03T02:09:57.974Z,3.50
2023-05-03T02:12:24.649Z,3.50
2023-05-03T02:14:51.806Z,3.40
2023-05-03T02:17:19.071Z,3.40
2023-05-03T02:19:46.016Z,3.30
2023-05-03T02:22:14.094Z,3.20
2023-05-03T02:24:41.146Z,3.20
2023-05-03T02:27:08.157Z,3.10
2023-05-03T02:29:34.997Z,3.00
2023-05-03T02:32:02.120Z,2.90
2023-05-03T02:34:28.842Z,2.90
2023-05-03T02:36:56.033Z,2.90
2023-05-03T02:39:22.783Z,2.80
2023-05-03T02:41:49.759Z,2.70
2023-05-03T02:44:16.760Z,2.70
2023-05-03T02:46:44.066Z,2.60
2023-05-03T02:49:10.980Z,2.60
2023-05-03T02:51:37.975Z,2.50
2023-05-03T02:54:04.987Z,2.50
2023-05-03T02:56:33.449Z,2.50
2023-05-03T02:59:00.166Z,2.50
2023-05-03T03:01:27.612Z,2.40
2023-05-03T03:03:54.768Z,2.50
2023-05-03T03:06:22.102Z,2.40
2023-05-03T03:08:48.859Z,2.40
2023-05-03T03:11:15.928Z,2.30
2023-05-03T03:13:42.713Z,2.30
2023-05-03T03:16:10.199Z,2.30
2023-05-03T03:18:37.877Z,2.20
2023-05-03T03:21:04.753Z,2.20
2023-05-03T03:23:31.678Z,2.10
2023-05-03T03:25:58.445Z,2.10
2023-05-03T03:28:25.537Z,2.10
2023-05-03T03:30:52.489Z,2.00
2023-05-03T03:33:24.328Z,2.00
2023-05-03T03:35:51.714Z,2.00
2023-05-03T03:38:18.671Z,2.00
2023-05-03T03:40:45.437Z,1.90
2023-05-03T03:43:12.443Z,1.90
2023-05-03T03:45:39.169Z,1.90
2023-05-03T03:48:06.563Z,1.80
2023-05-03T03:50:34.237Z,1.80
2023-05-03T03:53:03.304Z,1.80
2023-05-03T03:55:30.197Z,1.80
2023-05-03T03:57:58.119Z,1.80
2023-05-03T04:00:24.841Z,1.80
2023-05-03T04:02:51.585Z,1.80
2023-05-03T04:05:18.756Z,1.90
2023-05-03T04:07:45.554Z,1.90
2023-05-03T04:10:12.571Z,1.90
2023-05-03T04:12:39.303Z,2.00
2023-05-03T04:15:06.738Z,2.10
2023-05-03T04:17:35.278Z,2.20
2023-05-03T04:20:10.986Z,2.30
2023-05-03T04:22:39.804Z,2.50
2023-05-03T04:25:08.769Z,2.60
2023-05-03T04:27:35.893Z,2.80
2023-05-03T04:30:04.111Z,3.00
2023-05-03T04:32:37.180Z,3.20
2023-05-03T04:35:09.687Z,3.60
2023-05-03T04:37:41.986Z,4.00
2023-05-03T04:40:10.846Z,4.50
2023-05-03T04:42:37.972Z,4.70
2023-05-03T04:45:09.949Z,4.80
2023-05-03T04:47:37.185Z,5.00
2023-05-03T04:50:04.369Z,5.20
2023-05-03T04:52:32.018Z,5.50
2023-05-03T04:54:58.791Z,5.90
2023-05-03T04:57:25.888Z,6.20
2023-05-03T04:59:54.086Z,6.30
2023-05-03T05:02:21.694Z,6.40
2023-05-03T05:04:48.844Z,6.20
2023-05-03T05:07:15.741Z,6.20
2023-05-03T05:09:42.410Z,6.70
2023-05-03T05:12:09.612Z,7.00
2023-05-03T05:14:36.506Z,7.20
2023-05-03T05:17:03.874Z,7.00
2023-05-03T05:19:30.894Z,6.90
2023-05-03T05:21:57.743Z,6.80
2023-05-03T05:24:24.661Z,6.60
2023-05-03T05:26:51.539Z,6.50
2023-05-03T05:29:18.511Z,6.60
2023-05-03T05:31:45.233Z,7.10
2023-05-03T05:34:11.900Z,7.60
2023-05-03T05:36:38.860Z,7.80
2023-05-03T05:39:05.910Z,7.80
2023-05-03T05:41:32.610Z,8.10
2023-05-03T05:43:59.818Z,8.70
2023-05-03T05:46:26.633Z,8.90
2023-05-03T05:48:53.386Z,9.30
2023-05-03T05:51:20.514Z,9.30
2023-05-03T05:53:47.549Z,9.70
2023-05-03T05:56:14.491Z,9.90
2023-05-03T05:58:41.463Z,10.50
2023-05-03T06:01:08.823Z,11.30
2023-05-03T06:03:35.949Z,12.20
2023-05-03T06:06:03.092Z,12.70
2023-05-03T06:08:30.148Z,12.60
2023-05-03T06:10:56.910Z,12.90
2023-05-03T06:13:23.706Z,12.90
2023-05-03T06:15:50.680Z,13.00
2023-05-03T06:18:17.436Z,13.70
2023-05-03T06:20:44.129Z,14.10
2023-05-03T06:23:11.161Z,14.10
2023-05-03T06:25:38.141Z,14.80
2023-05-03T06:28:04.946Z,15.50
2023-05-03T06:30:32.000Z,15.30
2023-05-03T06:32:58.735Z,14.90
2023-05-03T06:35:25.852Z,15.90
2023-05-03T06:37:52.629Z,16.60
2023-05-03T06:40:19.492Z,17.40
2023-05-03T06:42:46.378Z,16.30
2023-05-03T06:45:13.440Z,16.00
2023-05-03T06:47:42.650Z,16.30
2023-05-03T06:50:10.537Z,18.00
2023-05-03T06:52:37.444Z,18.90
2023-05-03T06:55:04.887Z,19.30
2023-05-03T06:57:31.726Z,19.40
2023-05-03T06:59:58.718Z,18.80
2023-05-03T07:02:26.883Z,17.30
2023-05-03T07:04:53.983Z,16.40
2023-05-03T07:07:21.815Z,15.70
2023-05-03T07:09:48.592Z,15.60
2023-05-03T07:12:16.399Z,15.70
2023-05-03T07:14:43.778Z,14.90
2023-05-03T07:17:10.620Z,15.50
2023-05-03T07:19:38.979Z,16.40
2023-05-03T07:22:05.817Z,17.60
2023-05-03T07:24:32.858Z,18.50
2023-05-03T07:26:59.799Z,17.30
2023-05-03T07:29:27.510Z,17.10
2023-05-03T07:31:54.498Z,17.40
2023-05-03T07:34:21.874Z,16.00
2023-05-03T07:36:48.619Z,14.70
2023-05-03T07:39:16.098Z,14.70
2023-05-03T07:41:43.064Z,14.80
2023-05-03T07:44:09.756Z,15.20
2023-05-03T07:46:36.959Z,15.60
2023-05-03T07:49:04.879Z,16.10
2023-05-03T07:51:41.860Z,16.20
2023-05-03T07:54:08.920Z,16.10
2023-05-03T07:56:35.952Z,16.10
2023-05-03T07:59:09.243Z,16.00
2023-05-03T08:01:37.675Z,16.10
2023-05-03T08:04:05.106Z,15.40
2023-05-03T08:06:33.061Z,15.50
2023-05-03T08:09:00.097Z,15.40
2023-05-03T08:11:30.234Z,15.80
2023-05-03T08:13:57.004Z,15.70
2023-05-03T08:16:24.328Z,16.30
2023-05-03T08:18:51.962Z,16.60
2023-05-03T08:21:19.469Z,17.70
2023-05-03T08:23:46.424Z,19.40
2023-05-03T08:26:14.221Z,21.10
2023-05-03T08:28:41.417Z,22.70
2023-05-03T08:31:08.822Z,22.50
2023-05-03T08:33:35.882Z,21.00
2023-05-03T08:36:03.370Z,20.40
2023-05-03T08:38:30.108Z,22.80
2023-05-03T08:40:59.640Z,23.80
2023-05-03T08:43:28.999Z,24.10
2023-05-03T08:45:56.073Z,25.20
2023-05-03T08:48:23.235Z,25.80
2023-05-03T08:50:52.360Z,24.40
2023-05-03T08:53:19.271Z,25.00
2023-05-03T08:55:46.018Z,25.10
2023-05-03T08:58:13.545Z,24.40
2023-05-03T09:00:45.393Z,25.30
2023-05-03T09:03:12.894Z,26.00
2023-05-03T09:05:41.518Z,27.30
2023-05-03T09:08:10.922Z,28.40
2023-05-03T09:10:39.851Z,29.60
2023-05-03T09:13:07.949Z,31.60
2023-05-03T09:15:35.447Z,30.60
2023-05-03T09:18:21.351Z,30.00
2023-05-03T09:20:52.790Z,30.70
2023-05-03T09:23:40.432Z,32.40
2023-05-03T09:26:07.437Z,32.00
2023-05-03T09:28:44.372Z,31.90
2023-05-03T09:31:13.263Z,31.80
2023-05-03T09:33:40.378Z,32.20
2023-05-03T09:36:07.769Z,31.90
2023-05-03T09:38:36.932Z,31.40
2023-05-03T09:41:07.350Z,30.60
2023-05-03T09:43:35.741Z,30.30
2023-05-03T09:46:13.094Z,31.10
2023-05-03T09:48:40.924Z,31.70
2023-05-03T09:51:08.434Z,31.70
2023-05-03T09:53:37.331Z,31.70
2023-05-03T09:56:08.978Z,32.30
2023-05-03T09:58:36.617Z,32.30
2023-05-03T10:01:03.400Z,31.90
2023-05-03T10:03:51.231Z,32.60
2023-05-03T10:06:21.962Z,33.80
2023-05-03T10:08:55.018Z,33.80
2023-05-03T10:11:26.758Z,32.80
2023-05-03T10:13:55.931Z,31.70
2023-05-03T10:16:44.420Z,32.30
2023-05-03T10:19:36.111Z,32.50
2023-05-03T10:22:05.805Z,33.40
2023-05-03T10:24:34.359Z,34.10
2023-05-03T10:27:02.070Z,34.60
2023-05-03T10:29:34.908Z,35.60
2023-05-03T10:32:05.888Z,36.00
2023-05-03T10:34:39.540Z,36.30
2023-05-03T10:37:11.890Z,36.70
2023-05-03T10:39:44.844Z,35.90
2023-05-03T10:42:11.505Z,35.00
2023-05-03T10:44:54.544Z,35.00
2023-05-03T10:47:23.772Z,34.60
2023-05-03T10:50:11.735Z,35.30
2023-05-03T10:52:38.453Z,35.10
2023-05-03T10:55:13.275Z,35.30
2023-05-03T10:57:42.654Z,34.10
2023-05-03T11:00:13.933Z,32.90
2023-05-03T11:03:02.742Z,32.70
2023-05-03T11:05:31.541Z,33.40
2023-05-03T11:08:09.813Z,34.20
2023-05-03T11:10:36.593Z,34.50
2023-05-03T11:13:04.407Z,35.10
2023-05-03T11:15:31.425Z,35.60
2023-05-03T11:17:58.555Z,35.90
2023-05-03T11:20:26.025Z,35.90
2023-05-03T11:22:53.220Z,36.10
2023-05-03T11:25:20.264Z,36.40
2023-05-03T11:27:48.018Z,36.30
2023-05-03T11:30:15.023Z,35.80
2023-05-03T11:32:42.986Z,35.20
2023-05-03T11:35:10.151Z,34.30
2023-05-03T11:37:36.927Z,34.50
2023-05-03T11:40:05.301Z,34.70
2023-05-03T11:42:32.097Z,35.20
2023-05-03T11:45:00.041Z,35.70
2023-05-03T11:47:27.285Z,36.00
2023-05-03T11:49:55.941Z,36.50
2023-05-03T11:52:24.429Z,37.30
2023-05-03T11:54:51.410Z,37.50
2023-05-03T11:57:18.885Z,37.50
2023-05-03T11:59:45.756Z,37.20
2023-05-03T12:02:14.469Z,37.10
2023-05-03T12:04:45.668Z,36.90
2023-05-03T12:07:14.978Z,37.10
2023-05-03T12:09:47.687Z,37.50
2023-05-03T12:12:26.203Z,37.10
2023-05-03T12:15:03.574Z,33.80
2023-05-03T12:17:37.907Z,31.60
2023-05-03T12:22:57.652Z,33.70
2023-05-03T12:25:29.186Z,34.50
2023-05-03T12:28:18.801Z,34.70
2023-05-03T12:30:47.641Z,35.70
2023-05-03T12:33:17.036Z,35.80
2023-05-03T12:35:46.923Z,35.60
2023-05-03T12:38:17.493Z,34.30
2023-05-03T12:40:45.940Z,32.90
2023-05-03T12:43:13.189Z,31.90
2023-05-03T12:45:41.096Z,31.20
2023-05-03T12:48:09.057Z,31.40
2023-05-03T12:50:38.733Z,32.30
2023-05-03T12:53:09.459Z,31.50
2023-05-03T12:55:43.222Z,30.60
2023-05-03T13:00:51.420Z,28.60
2023-05-03T13:03:33.440Z,27.30
2023-05-03T13:06:11.112Z,28.20
2023-05-03T13:08:48.305Z,29.40
2023-05-03T13:11:19.263Z,30.10
2023-05-03T13:13:46.756Z,29.60
2023-05-03T13:16:14.570Z,28.40
2023-05-03T13:18:43.206Z,26.70
2023-05-03T13:21:11.122Z,26.20
2023-05-03T13:23:38.054Z,24.90
2023-05-03T13:26:04.924Z,24.30
2023-05-03T13:28:32.111Z,23.50
2023-05-03T13:30:58.817Z,23.00
2023-05-03T13:33:25.744Z,22.70
2023-05-03T13:35:52.410Z,22.60
2023-05-03T13:38:19.308Z,22.20
2023-05-03T13:40:46.295Z,22.10
2023-05-03T13:43:12.949Z,22.00
2023-05-03T13:45:39.891Z,21.90
2023-05-03T13:48:17.904Z,21.70
2023-05-03T13:50:46.018Z,20.90
2023-05-03T13:53:14.956Z,20.00
2023-05-03T13:55:41.706Z,19.40
2023-05-03T13:58:08.651Z,19.30
2023-05-03T14:00:35.665Z,19.30
2023-05-03T14:03:02.529Z,19.20
2023-05-03T14:05:29.672Z,19.00
2023-05-03T14:07:57.275Z,18.70
2023-05-03T14:10:37.380Z,18.50
2023-05-03T14:13:04.206Z,18.60
2023-05-03T14:15:31.467Z,18.50
2023-05-03T14:18:01.308Z,18.50
2023-05-03T14:20:30.504Z,18.50
2023-05-03T14:22:57.245Z,18.60
2023-05-03T14:25:23.985Z,18.60
2023-05-03T14:27:51.126Z,18.60
2023-05-03T14:30:17.896Z,18.50
2023-05-03T14:32:44.849Z,18.20
2023-05-03T14:35:11.622Z,18.20
2023-05-03T14:37:38.637Z,18.10
2023-05-03T14:40:06.779Z,18.10
2023-05-03T14:42:33.824Z,18.10
2023-05-03T14:45:01.046Z,18.00
2023-05-03T14:47:27.964Z,18.00
2023-05-03T14:49:54.665Z,18.00
2023-05-03T14:52:21.440Z,18.10
2023-05-03T14:54:48.121Z,18.00
2023-05-03T14:57:14.948Z,18.00
2023-05-03T14:59:41.865Z,17.80
2023-05-03T15:02:10.141Z,17.70
2023-05-03T15:04:40.403Z,17.70
2023-05-03T15:07:07.743Z,17.50
2023-05-03T15:09:42.962Z,17.50
2023-05-03T15:12:09.995Z,17.50
2023-05-03T15:14:36.647Z,17.40
2023-05-03T15:17:03.467Z,17.10
2023-05-03T15:19:30.458Z,17.00
2023-05-03T15:21:57.186Z,17.00
2023-05-03T15:24:23.973Z,16.90
2023-05-03T15:26:51.730Z,16.90
2023-05-03T15:29:18.433Z,16.60
2023-05-03T15:31:45.435Z,16.30
2023-05-03T15:34:12.514Z,16.40
2023-05-03T15:36:40.453Z,16.40
2023-05-03T15:39:08.010Z,16.20
2023-05-03T15:41:34.730Z,16.00
2023-05-03T15:44:25.634Z,16.10
2023-05-03T15:46:52.529Z,16.00
2023-05-03T15:49:19.455Z,15.80
2023-05-03T15:51:46.361Z,15.60
2023-05-03T15:54:13.060Z,15.60
2023-05-03T15:56:40.435Z,15.70
2023-05-03T15:59:07.534Z,15.60
2023-05-03T16:01:34.525Z,15.60
2023-05-03T16:04:01.311Z,15.40
2023-05-03T16:06:28.785Z,15.30
2023-05-03T16:08:55.806Z,15.20
2023-05-03T16:11:22.586Z,15.00
2023-05-03T16:13:50.686Z,15.00
2023-05-03T16:16:17.764Z,15.00
2023-05-03T16:19:00.920Z,15.00
2023-05-03T16:21:27.900Z,14.90
2023-05-03T16:23:54.662Z,14.80
2023-05-03T16:26:21.711Z,14.80
2023-05-03T16:28:50.061Z,14.80
2023-05-03T16:31:17.013Z,14.70
2023-05-03T16:33:43.803Z,14.60
2023-05-03T16:36:10.970Z,14.60
2023-05-03T16:38:37.660Z,14.60
2023-05-03T16:41:04.397Z,14.50
2023-05-03T16:43:32.332Z,14.40
2023-05-03T16:46:00.484Z,14.40
2023-05-03T16:48:31.564Z,14.40
2023-05-03T16:50:59.614Z,14.30
2023-05-03T16:53:26.696Z,14.30
2023-05-03T16:56:25.214Z,14.30
2023-05-03T16:58:53.371Z,14.20
2023-05-03T17:01:20.448Z,14.10
2023-05-03T17:03:47.291Z,14.10
2023-05-03T17:06:15.060Z,14.10
2023-05-03T17:08:42.005Z,14.00
2023-05-03T17:11:12.690Z,13.90
2023-05-03T17:13:40.190Z,13.80
2023-05-03T17:16:09.145Z,13.70
2023-05-03T17:18:37.175Z,13.60
2023-05-03T17:21:05.111Z,13.50
2023-05-03T17:23:38.798Z,13.40
2023-05-03T17:26:08.817Z,13.40
2023-05-03T17:28:37.091Z,13.30
2023-05-03T17:31:05.592Z,13.20
2023-05-03T17:33:35.166Z,13.20
2023-05-03T17:36:05.133Z,13.10
2023-05-03T17:38:33.283Z,13.00
2023-05-03T17:41:07.783Z,13.00
2023-05-03T17:43:36.273Z,12.90
2023-05-03T17:46:12.277Z,12.80
2023-05-03T17:48:44.160Z,12.70
2023-05-03T17:51:13.351Z,12.60
2023-05-03T17:53:41.103Z,12.50
2023-05-03T17:56:17.842Z,12.40
2023-05-03T17:58:45.737Z,12.20
2023-05-03T18:01:13.542Z,12.20
2023-05-03T18:03:41.886Z,12.00
2023-05-03T18:06:10.601Z,11.90
2023-05-03T18:08:37.877Z,11.80
2023-05-03T18:11:04.860Z,11.70
2023-05-03T18:13:34.985Z,11.60
2023-05-03T18:18:34.005Z,11.40
2023-05-03T18:21:02.284Z,11.40
2023-05-03T18:23:30.967Z,11.30
2023-05-03T18:25:57.986Z,11.20
2023-05-03T18:28:25.592Z,11.10
2023-05-03T18:30:58.981Z,11.00
2023-05-03T18:33:25.665Z,10.90
2023-05-03T18:35:53.209Z,10.80
2023-05-03T18:38:21.862Z,10.70
2023-05-03T18:40:49.666Z,10.60
2023-05-03T18:43:16.947Z,10.50
2023-05-03T18:45:44.133Z,10.40
2023-05-03T18:48:10.898Z,10.30
2023-05-03T18:50:44.104Z,10.20
2023-05-03T18:53:11.174Z,10.20
2023-05-03T18:55:38.030Z,10.20
2023-05-03T18:58:05.573Z,10.20
2023-05-03T19:00:32.482Z,10.00
2023-05-03T19:02:59.567Z,9.90
2023-05-03T19:05:26.348Z,9.80
2023-05-03T19:07:53.125Z,9.70
2023-05-03T19:10:20.959Z,9.60
2023-05-03T19:12:47.953Z,9.50
2023-05-03T19:15:14.700Z,9.40
2023-05-03T19:17:42.262Z,9.30
2023-05-03T19:20:10.342Z,9.20
2023-05-03T19:22:37.322Z,9.10
2023-05-03T19:25:05.219Z,9.00
2023-05-03T19:27:32.138Z,8.90
2023-05-03T19:29:58.868Z,8.80
2023-05-03T19:32:25.865Z,8.70
2023-05-03T19:34:52.882Z,8.50
2023-05-03T19:37:19.732Z,8.40
2023-05-03T19:39:46.798Z,8.30
2023-05-03T19:42:13.608Z,8.30
2023-05-03T19:44:40.690Z,8.30
2023-05-03T19:47:07.401Z,8.20
2023-05-03T19:49:34.406Z,8.10
2023-05-03T19:52:02.073Z,8.00
2023-05-03T19:54:29.995Z,7.90
2023-05-03T19:56:56.697Z,7.90
2023-05-03T19:59:23.443Z,7.80
2023-05-03T20:01:50.680Z,7.70
2023-05-03T20:04:17.472Z,7.60
2023-05-03T20:06:44.520Z,7.60
2023-05-03T20:09:11.296Z,7.50
2023-05-03T20:11:38.039Z,7.40
2023-05-03T20:14:04.725Z,7.30
2023-05-03T20:16:33.488Z,7.30
2023-05-03T20:19:00.958Z,7.20
2023-05-03T20:21:27.698Z,7.20
2023-05-03T20:23:54.633Z,7.10
2023-05-03T20:26:21.785Z,7.10
2023-05-03T20:28:48.826Z,7.00
2023-05-03T20:31:15.769Z,6.90
2023-05-03T20:33:42.534Z,6.80
2023-05-03T20:36:09.521Z,6.80
2023-05-03T20:38:36.273Z,6.70
2023-05-03T20:41:03.248Z,6.70
2023-05-03T20:43:29.937Z,6.60
2023-05-03T20:45:57.874Z,6.50
2023-05-03T20:48:24.674Z,6.40
2023-05-03T20:50:51.512Z,6.40
2023-05-03T20:53:18.367Z,6.40
2023-05-03T20:55:45.079Z,6.30
2023-05-03T20:58:12.674Z,6.30
2023-05-03T21:00:39.611Z,6.20
2023-05-03T21:03:06.409Z,6.20
2023-05-03T21:05:33.199Z,6.10
2023-05-03T21:07:59.933Z,6.10
2023-05-03T21:10:26.669Z,6.00
2023-05-03T21:12:53.698Z,6.00
2023-05-03T21:15:20.459Z,5.90
2023-05-03T21:17:47.750Z,5.80
2023-05-03T21:20:14.544Z,5.80
2023-05-03T21:22:41.227Z,5.70
2023-05-03T21:25:08.756Z,5.70
2023-05-03T21:27:35.485Z,5.60
2023-05-03T21:30:02.822Z,5.60
2023-05-03T21:32:29.884Z,5.50
2023-05-03T21:34:56.799Z,5.50
2023-05-03T21:37:23.796Z,5.50
2023-05-03T21:40:00.382Z,5.50
2023-05-03T21:42:28.336Z,5.40
2023-05-03T21:44:55.736Z,5.30
2023-05-03T21:47:22.398Z,5.30
2023-05-03T21:49:49.355Z,5.20
2023-05-03T21:52:16.029Z,5.20
2023-05-03T21:54:42.884Z,5.10
2023-05-03T21:57:09.812Z,5.10
2023-05-03T21:59:36.496Z,5.00
2023-05-03T22:02:03.307Z,5.00
2023-05-03T22:04:31.093Z,5.00
2023-05-03T22:06:58.132Z,4.90
2023-05-03T22:09:25.447Z,4.90
2023-05-03T22:11:52.327Z,4.80
2023-05-03T22:14:19.265Z,4.80
2023-05-03T22:16:46.071Z,4.70
2023-05-03T22:19:13.291Z,4.70
2023-05-03T22:21:40.266Z,4.70
2023-05-03T22:24:07.722Z,4.60
2023-05-03T22:26:34.538Z,4.60
2023-05-03T22:29:02.020Z,4.50
2023-05-03T22:31:30.358Z,4.40
2023-05-03T22:33:57.739Z,4.40
2023-05-03T22:36:24.480Z,4.40
2023-05-03T22:38:55.427Z,4.30
2023-05-03T22:41:22.331Z,4.30
2023-05-03T22:43:49.362Z,4.20
2023-05-03T22:46:16.255Z,4.20
2023-05-03T22:48:43.328Z,4.20
2023-05-03T22:51:10.167Z,4.20
2023-05-03T22:53:36.881Z,4.10
2023-05-03T22:56:07.209Z,4.10
2023-05-03T22:58:34.670Z,4.00
2023-05-03T23:01:01.860Z,4.00
2023-05-03T23:03:29.175Z,4.00
2023-05-03T23:05:56.090Z,3.90
2023-05-03T23:08:23.295Z,3.90
2023-05-03T23:10:50.513Z,3.90
2023-05-03T23:13:17.237Z,3.80
2023-05-03T23:15:44.017Z,3.80
2023-05-03T23:18:10.722Z,3.70
2023-05-03T23:20:37.887Z,3.70
2023-05-03T23:23:04.626Z,3.70
2023-05-03T23:25:31.640Z,3.70
2023-05-03T23:27:58.661Z,3.60
2023-05-03T23:30:26.163Z,3.60
2023-05-03T23:32:53.498Z,3.50
2023-05-03T23:35:21.699Z,3.50
2023-05-03T23:37:48.422Z,3.50
2023-05-03T23:40:15.252Z,3.50
2023-05-03T23:42:43.375Z,3.40
2023-05-03T23:45:10.826Z,3.40
2023-05-03T23:47:37.704Z,3.40
2023-05-03T23:50:05.709Z,3.40
2023-05-03T23:52:32.873Z,3.30
2023-05-03T23:54:59.599Z,3.30
2023-05-03T23:57:27.004Z,3.20
2023-05-03T23:59:53.917Z,3.20
